sensor_id;sensor_type;location;lat;lon;timestamp;temperature;humidity
8043;DHT22;4064;48.132;11.366;2023-05-10T00:00:37;12.90;99.90
8043;DHT22;4064;48.132;11.366;2023-05-10T00:03:02;12.90;99.90
8043;DHT22;4064;48.132;11.366;2023-05-10T00:05:30;12.80;99.90
8043;DHT22;4064;48.132;11.366;2023-05-10T00:07:56;12.80;99.90
8043;DHT22;4064;48.132;11.366;2023-05-10T00:10:22;12.80;99.90
8043;DHT22;4064;48.132;11.366;2023-05-10T00:12:48;12.70;99.90
8043;DHT22;4064;48.132;11.366;2023-05-10T00:15:14;12.70;99.90
8043;DHT22;4064;48.132;11.366;2023-05-10T00:17:40;12.70;99.90
8043;DHT22;4064;48.132;11.366;2023-05-10T00:20:06;12.70;99.90
8043;DHT22;4064;48.132;11.366;2023-05-10T00:22:34;12.60;99.90
8043;DHT22;4064;48.132;11.366;2023-05-10T00:24:59;12.60;99.90
8043;DHT22;4064;48.132;11.366;2023-05-10T00:27:25;12.60;99.90
8043;DHT22;4064;48.132;11.366;2023-05-10T00:29:51;12.60;99.90
8043;DHT22;4064;48.132;11.366;2023-05-10T00:32:17;12.70;99.90
8043;DHT22;4064;48.132;11.366;2023-05-10T00:34:43;12.60;99.90
8043;DHT22;4064;48.132;11.366;2023-05-10T00:37:09;12.60;99.90
8043;DHT22;4064;48.132;11.366;2023-05-10T00:39:35;12.60;99.90
8043;DHT22;4064;48.132;11.366;2023-05-10T00:42:01;12.60;99.90
8043;DHT22;4064;48.132;11.366;2023-05-10T00:44:27;12.60;99.90
8043;DHT22;4064;48.132;11.366;2023-05-10T00:46:54;12.60;99.90
8043;DHT22;4064;48.132;11.366;2023-05-10T00:49:20;12.60;99.90
8043;DHT22;4064;48.132;11.366;2023-05-10T00:51:46;12.60;99.90
8043;DHT22;4064;48.132;11.366;2023-05-10T00:54:15;12.50;99.90
8043;DHT22;4064;48.132;11.366;2023-05-10T00:56:41;12.50;99.90
8043;DHT22;4064;48.132;11.366;2023-05-10T00:59:17;12.50;99.90
8043;DHT22;4064;48.132;11.366;2023-05-10T01:01:45;12.50;99.90
8043;DHT22;4064;48.132;11.366;2023-05-10T01:04:14;12.50;99.90
8043;DHT22;4064;48.132;11.366;2023-05-10T01:06:43;12.50;99.90
8043;DHT22;4064;48.132;11.366;2023-05-10T01:09:10;12.40;99.90
8043;DHT22;4064;48.132;11.366;2023-05-10T01:11:38;12.40;99.90
8043;DHT22;4064;48.132;11.366;2023-05-10T01:14:05;12.40;99.90
8043;DHT22;4064;48.132;11.366;2023-05-10T01:16:35;12.40;99.90
8043;DHT22;4064;48.132;11.366;2023-05-10T01:19:01;12.40;99.90
8043;DHT22;4064;48.132;11.366;2023-05-10T01:21:39;12.30;99.90
8043;DHT22;4064;48.132;11.366;2023-05-10T01:30:17;12.30;99.90
8043;DHT22;4064;48.132;11.366;2023-05-10T01:41:17;12.40;99.90
8043;DHT22;4064;48.132;11.366;2023-05-10T01:43:57;12.40;99.90
8043;DHT22;4064;48.132;11.366;2023-05-10T01:46:34;12.30;99.90
8043;DHT22;4064;48.132;11.366;2023-05-10T01:49:07;12.30;99.90
8043;DHT22;4064;48.132;11.366;2023-05-10T01:51:39;12.30;99.90
8043;DHT22;4064;48.132;11.366;2023-05-10T01:54:08;12.30;99.90
8043;DHT22;4064;48.132;11.366;2023-05-10T01:56:37;12.40;99.90
8043;DHT22;4064;48.132;11.366;2023-05-10T01:59:08;12.40;99.90
8043;DHT22;4064;48.132;11.366;2023-05-10T02:01:38;12.30;99.90
8043;DHT22;4064;48.132;11.366;2023-05-10T02:04:06;12.30;99.90
8043;DHT22;4064;48.132;11.366;2023-05-10T02:06:33;12.30;99.90
8043;DHT22;4064;48.132;11.366;2023-05-10T02:09:01;12.40;99.90
8043;DHT22;4064;48.132;11.366;2023-05-10T02:11:29;12.40;99.90
8043;DHT22;4064;48.132;11.366;2023-05-10T02:13:56;12.40;99.90
8043;DHT22;4064;48.132;11.366;2023-05-10T02:16:26;12.40;99.90
8043;DHT22;4064;48.132;11.366;2023-05-10T02:18:53;12.40;99.90
8043;DHT22;4064;48.132;11.366;2023-05-10T02:21:22;12.40;99.90
8043;DHT22;4064;48.132;11.366;2023-05-10T02:23:52;12.30;99.90
8043;DHT22;4064;48.132;11.366;2023-05-10T02:26:20;12.30;99.90
8043;DHT22;4064;48.132;11.366;2023-05-10T02:28:47;12.30;99.90
8043;DHT22;4064;48.132;11.366;2023-05-10T02:31:15;12.30;99.90
8043;DHT22;4064;48.132;11.366;2023-05-10T02:33:42;12.30;99.90
8043;DHT22;4064;48.132;11.366;2023-05-10T02:36:11;12.20;99.90
8043;DHT22;4064;48.132;11.366;2023-05-10T02:38:38;12.30;99.90
8043;DHT22;4064;48.132;11.366;2023-05-10T02:41:05;12.30;99.90
8043;DHT22;4064;48.132;11.366;2023-05-10T02:43:32;12.30;99.90
8043;DHT22;4064;48.132;11.366;2023-05-10T02:45:59;12.30;99.90
8043;DHT22;4064;48.132;11.366;2023-05-10T02:48:25;12.30;99.90
8043;DHT22;4064;48.132;11.366;2023-05-10T02:50:52;12.30;99.90
8043;DHT22;4064;48.132;11.366;2023-05-10T02:53:33;12.30;99.90
8043;DHT22;4064;48.132;11.366;2023-05-10T02:56:05;12.30;99.90
8043;DHT22;4064;48.132;11.366;2023-05-10T02:58:34;12.30;99.90
8043;DHT22;4064;48.132;11.366;2023-05-10T03:01:02;12.20;99.90
8043;DHT22;4064;48.132;11.366;2023-05-10T03:03:28;12.30;99.90
8043;DHT22;4064;48.132;11.366;2023-05-10T03:05:54;12.20;99.90
8043;DHT22;4064;48.132;11.366;2023-05-10T03:08:22;12.30;99.90
8043;DHT22;4064;48.132;11.366;2023-05-10T03:11:07;12.30;99.90
8043;DHT22;4064;48.132;11.366;2023-05-10T03:13:55;12.30;99.90
8043;DHT22;4064;48.132;11.366;2023-05-10T03:16:27;12.30;99.90
8043;DHT22;4064;48.132;11.366;2023-05-10T03:19:01;12.20;99.90
8043;DHT22;4064;48.132;11.366;2023-05-10T03:21:29;12.20;99.90
8043;DHT22;4064;48.132;11.366;2023-05-10T03:24:02;12.20;99.90
8043;DHT22;4064;48.132;11.366;2023-05-10T03:26:32;12.20;99.90
8043;DHT22;4064;48.132;11.366;2023-05-10T03:28:59;12.30;99.90
8043;DHT22;4064;48.132;11.366;2023-05-10T03:31:26;12.20;99.90
8043;DHT22;4064;48.132;11.366;2023-05-10T03:33:52;12.20;99.90
8043;DHT22;4064;48.132;11.366;2023-05-10T03:36:19;12.20;99.90
8043;DHT22;4064;48.132;11.366;2023-05-10T03:38:47;12.20;99.90
8043;DHT22;4064;48.132;11.366;2023-05-10T03:41:12;12.20;99.90
8043;DHT22;4064;48.132;11.366;2023-05-10T03:43:39;12.20;99.90
8043;DHT22;4064;48.132;11.366;2023-05-10T03:46:05;12.20;99.90
8043;DHT22;4064;48.132;11.366;2023-05-10T03:48:34;12.20;99.90
8043;DHT22;4064;48.132;11.366;2023-05-10T03:51:00;12.10;99.90
8043;DHT22;4064;48.132;11.366;2023-05-10T03:53:26;12.10;99.90
8043;DHT22;4064;48.132;11.366;2023-05-10T03:55:52;12.10;99.90
8043;DHT22;4064;48.132;11.366;2023-05-10T03:58:18;12.10;99.90
8043;DHT22;4064;48.132;11.366;2023-05-10T04:00:45;12.10;99.90
8043;DHT22;4064;48.132;11.366;2023-05-10T04:03:12;12.10;99.90
8043;DHT22;4064;48.132;11.366;2023-05-10T04:05:38;12.10;99.90
8043;DHT22;4064;48.132;11.366;2023-05-10T04:08:05;12.10;99.90
8043;DHT22;4064;48.132;11.366;2023-05-10T04:10:32;12.10;99.90
8043;DHT22;4064;48.132;11.366;2023-05-10T04:12:57;12.10;99.90
8043;DHT22;4064;48.132;11.366;2023-05-10T04:15:23;12.20;99.90
8043;DHT22;4064;48.132;11.366;2023-05-10T04:17:50;12.20;99.90
8043;DHT22;4064;48.132;11.366;2023-05-10T04:20:15;12.10;99.90
8043;DHT22;4064;48.132;11.366;2023-05-10T04:22:41;12.10;99.90
8043;DHT22;4064;48.132;11.366;2023-05-10T04:25:08;12.10;99.90
8043;DHT22;4064;48.132;11.366;2023-05-10T04:27:34;12.10;99.90
8043;DHT22;4064;48.132;11.366;2023-05-10T04:29:59;12.10;99.90
8043;DHT22;4064;48.132;11.366;2023-05-10T04:32:26;12.10;99.90
8043;DHT22;4064;48.132;11.366;2023-05-10T04:34:51;12.10;99.90
8043;DHT22;4064;48.132;11.366;2023-05-10T04:37:18;12.00;99.90
8043;DHT22;4064;48.132;11.366;2023-05-10T04:39:45;12.00;99.90
8043;DHT22;4064;48.132;11.366;2023-05-10T04:42:11;12.00;99.90
8043;DHT22;4064;48.132;11.366;2023-05-10T04:44:37;12.00;99.90
8043;DHT22;4064;48.132;11.366;2023-05-10T04:47:03;11.90;99.90
8043;DHT22;4064;48.132;11.366;2023-05-10T04:49:29;11.90;99.90
8043;DHT22;4064;48.132;11.366;2023-05-10T04:51:55;11.80;99.90
8043;DHT22;4064;48.132;11.366;2023-05-10T04:54:21;11.80;99.90
8043;DHT22;4064;48.132;11.366;2023-05-10T04:56:47;11.80;99.90
8043;DHT22;4064;48.132;11.366;2023-05-10T04:59:13;11.90;99.90
8043;DHT22;4064;48.132;11.366;2023-05-10T05:01:39;11.80;99.90
8043;DHT22;4064;48.132;11.366;2023-05-10T05:04:05;11.80;99.90
8043;DHT22;4064;48.132;11.366;2023-05-10T05:06:30;11.80;99.90
8043;DHT22;4064;48.132;11.366;2023-05-10T05:08:56;11.80;99.90
8043;DHT22;4064;48.132;11.366;2023-05-10T05:11:28;11.80;99.90
8043;DHT22;4064;48.132;11.366;2023-05-10T05:13:54;11.80;99.90
8043;DHT22;4064;48.132;11.366;2023-05-10T05:16:19;11.80;99.90
8043;DHT22;4064;48.132;11.366;2023-05-10T05:18:45;11.70;99.90
8043;DHT22;4064;48.132;11.366;2023-05-10T05:21:18;11.70;99.90
8043;DHT22;4064;48.132;11.366;2023-05-10T05:23:44;11.70;99.90
8043;DHT22;4064;48.132;11.366;2023-05-10T05:26:10;11.50;99.90
8043;DHT22;4064;48.132;11.366;2023-05-10T05:28:36;11.40;99.90
8043;DHT22;4064;48.132;11.366;2023-05-10T05:31:07;11.30;99.90
8043;DHT22;4064;48.132;11.366;2023-05-10T05:33:33;11.20;99.90
8043;DHT22;4064;48.132;11.366;2023-05-10T05:36:04;11.20;99.90
8043;DHT22;4064;48.132;11.366;2023-05-10T05:38:30;11.20;99.90
8043;DHT22;4064;48.132;11.366;2023-05-10T05:40:56;11.20;99.90
8043;DHT22;4064;48.132;11.366;2023-05-10T05:43:22;11.30;99.90
8043;DHT22;4064;48.132;11.366;2023-05-10T05:45:49;11.30;99.90
8043;DHT22;4064;48.132;11.366;2023-05-10T05:48:15;11.40;99.90
8043;DHT22;4064;48.132;11.366;2023-05-10T05:50:40;11.40;99.90
8043;DHT22;4064;48.132;11.366;2023-05-10T05:53:06;11.40;99.90
8043;DHT22;4064;48.132;11.366;2023-05-10T05:55:33;11.40;99.90
8043;DHT22;4064;48.132;11.366;2023-05-10T05:57:59;11.50;99.90
8043;DHT22;4064;48.132;11.366;2023-05-10T06:00:25;11.50;99.90
8043;DHT22;4064;48.132;11.366;2023-05-10T06:02:51;11.40;99.90
8043;DHT22;4064;48.132;11.366;2023-05-10T06:05:17;11.50;99.90
8043;DHT22;4064;48.132;11.366;2023-05-10T06:07:42;11.50;99.90
8043;DHT22;4064;48.132;11.366;2023-05-10T06:10:09;11.50;99.90
8043;DHT22;4064;48.132;11.366;2023-05-10T06:12:35;11.60;99.90
8043;DHT22;4064;48.132;11.366;2023-05-10T06:15:02;11.60;99.90
8043;DHT22;4064;48.132;11.366;2023-05-10T06:17:28;11.70;99.90
8043;DHT22;4064;48.132;11.366;2023-05-10T06:19:54;11.70;99.90
8043;DHT22;4064;48.132;11.366;2023-05-10T06:22:20;11.90;99.90
8043;DHT22;4064;48.132;11.366;2023-05-10T06:24:48;12.00;99.90
8043;DHT22;4064;48.132;11.366;2023-05-10T06:27:14;12.20;99.90
8043;DHT22;4064;48.132;11.366;2023-05-10T06:29:40;12.40;99.90
8043;DHT22;4064;48.132;11.366;2023-05-10T06:32:06;12.60;99.90
8043;DHT22;4064;48.132;11.366;2023-05-10T06:34:32;12.70;99.90
8043;DHT22;4064;48.132;11.366;2023-05-10T06:36:57;12.80;99.90
8043;DHT22;4064;48.132;11.366;2023-05-10T06:39:23;13.00;99.90
8043;DHT22;4064;48.132;11.366;2023-05-10T06:41:49;13.20;99.90
8043;DHT22;4064;48.132;11.366;2023-05-10T06:44:15;13.30;99.90
8043;DHT22;4064;48.132;11.366;2023-05-10T06:46:41;13.40;99.90
8043;DHT22;4064;48.132;11.366;2023-05-10T06:49:07;13.40;99.90
8043;DHT22;4064;48.132;11.366;2023-05-10T06:51:33;13.60;99.90
8043;DHT22;4064;48.132;11.366;2023-05-10T06:53:59;13.80;99.90
8043;DHT22;4064;48.132;11.366;2023-05-10T06:56:25;14.00;99.90
8043;DHT22;4064;48.132;11.366;2023-05-10T06:58:51;14.20;99.90
8043;DHT22;4064;48.132;11.366;2023-05-10T07:01:17;14.30;99.90
8043;DHT22;4064;48.132;11.366;2023-05-10T07:03:43;14.30;99.90
8043;DHT22;4064;48.132;11.366;2023-05-10T07:06:08;14.20;99.90
8043;DHT22;4064;48.132;11.366;2023-05-10T07:08:34;14.00;99.90
8043;DHT22;4064;48.132;11.366;2023-05-10T07:11:04;14.00;99.90
8043;DHT22;4064;48.132;11.366;2023-05-10T07:13:31;13.90;99.90
8043;DHT22;4064;48.132;11.366;2023-05-10T07:15:58;13.80;99.90
8043;DHT22;4064;48.132;11.366;2023-05-10T07:18:25;13.80;99.90
8043;DHT22;4064;48.132;11.366;2023-05-10T07:20:51;13.80;99.90
8043;DHT22;4064;48.132;11.366;2023-05-10T07:23:18;13.70;99.90
8043;DHT22;4064;48.132;11.366;2023-05-10T07:25:46;13.70;99.90
8043;DHT22;4064;48.132;11.366;2023-05-10T07:28:13;13.70;99.90
8043;DHT22;4064;48.132;11.366;2023-05-10T07:30:39;13.60;99.90
8043;DHT22;4064;48.132;11.366;2023-05-10T07:33:04;13.70;99.90
8043;DHT22;4064;48.132;11.366;2023-05-10T07:35:30;13.70;99.90
8043;DHT22;4064;48.132;11.366;2023-05-10T07:37:56;13.90;99.90
8043;DHT22;4064;48.132;11.366;2023-05-10T07:40:22;13.90;99.90
8043;DHT22;4064;48.132;11.366;2023-05-10T07:42:48;14.00;99.90
8043;DHT22;4064;48.132;11.366;2023-05-10T07:45:14;14.00;99.90
8043;DHT22;4064;48.132;11.366;2023-05-10T07:47:39;14.00;99.90
8043;DHT22;4064;48.132;11.366;2023-05-10T07:50:06;14.00;99.90
8043;DHT22;4064;48.132;11.366;2023-05-10T07:52:32;14.00;99.90
8043;DHT22;4064;48.132;11.366;2023-05-10T07:54:58;14.00;99.90
8043;DHT22;4064;48.132;11.366;2023-05-10T07:57:24;14.00;99.90
8043;DHT22;4064;48.132;11.366;2023-05-10T07:59:50;14.20;99.90
8043;DHT22;4064;48.132;11.366;2023-05-10T08:02:16;14.40;99.90
8043;DHT22;4064;48.132;11.366;2023-05-10T08:04:41;14.50;99.90
8043;DHT22;4064;48.132;11.366;2023-05-10T08:07:07;14.40;99.90
8043;DHT22;4064;48.132;11.366;2023-05-10T08:09:33;14.30;99.90
8043;DHT22;4064;48.132;11.366;2023-05-10T08:11:59;14.30;99.90
8043;DHT22;4064;48.132;11.366;2023-05-10T08:14:27;14.30;99.90
8043;DHT22;4064;48.132;11.366;2023-05-10T08:16:53;14.20;99.90
8043;DHT22;4064;48.132;11.366;2023-05-10T08:19:19;14.10;99.90
8043;DHT22;4064;48.132;11.366;2023-05-10T08:21:46;14.20;99.90
8043;DHT22;4064;48.132;11.366;2023-05-10T08:24:13;14.40;99.90
8043;DHT22;4064;48.132;11.366;2023-05-10T08:26:40;14.40;99.90
8043;DHT22;4064;48.132;11.366;2023-05-10T08:29:05;14.40;99.90
8043;DHT22;4064;48.132;11.366;2023-05-10T08:31:32;14.50;99.90
8043;DHT22;4064;48.132;11.366;2023-05-10T08:33:58;14.60;99.90
8043;DHT22;4064;48.132;11.366;2023-05-10T08:36:23;14.60;99.90
8043;DHT22;4064;48.132;11.366;2023-05-10T08:38:53;14.80;99.90
8043;DHT22;4064;48.132;11.366;2023-05-10T08:41:24;15.30;99.90
8043;DHT22;4064;48.132;11.366;2023-05-10T08:43:54;15.50;99.90
8043;DHT22;4064;48.132;11.366;2023-05-10T08:46:21;15.40;99.90
8043;DHT22;4064;48.132;11.366;2023-05-10T08:48:49;15.30;99.90
8043;DHT22;4064;48.132;11.366;2023-05-10T08:51:18;15.10;99.90
8043;DHT22;4064;48.132;11.366;2023-05-10T08:53:44;14.80;99.90
8043;DHT22;4064;48.132;11.366;2023-05-10T08:56:10;14.70;99.90
8043;DHT22;4064;48.132;11.366;2023-05-10T08:58:37;14.40;99.90
8043;DHT22;4064;48.132;11.366;2023-05-10T09:01:05;14.30;99.90
8043;DHT22;4064;48.132;11.366;2023-05-10T09:03:32;14.20;99.90
8043;DHT22;4064;48.132;11.366;2023-05-10T09:05:58;14.20;99.90
8043;DHT22;4064;48.132;11.366;2023-05-10T09:08:25;14.40;99.90
8043;DHT22;4064;48.132;11.366;2023-05-10T09:10:51;14.70;99.90
8043;DHT22;4064;48.132;11.366;2023-05-10T09:13:17;15.10;99.90
8043;DHT22;4064;48.132;11.366;2023-05-10T09:15:45;15.30;99.90
8043;DHT22;4064;48.132;11.366;2023-05-10T09:18:12;15.40;99.90
8043;DHT22;4064;48.132;11.366;2023-05-10T09:20:37;15.40;99.90
8043;DHT22;4064;48.132;11.366;2023-05-10T09:23:03;15.40;99.90
8043;DHT22;4064;48.132;11.366;2023-05-10T09:25:29;15.20;99.90
8043;DHT22;4064;48.132;11.366;2023-05-10T09:27:55;15.10;99.90
8043;DHT22;4064;48.132;11.366;2023-05-10T09:30:26;15.00;99.90
8043;DHT22;4064;48.132;11.366;2023-05-10T09:32:57;15.00;99.90
8043;DHT22;4064;48.132;11.366;2023-05-10T09:35:25;15.10;99.90
8043;DHT22;4064;48.132;11.366;2023-05-10T09:37:53;15.20;99.90
8043;DHT22;4064;48.132;11.366;2023-05-10T09:40:27;15.40;99.90
8043;DHT22;4064;48.132;11.366;2023-05-10T09:43:06;15.50;99.90
8043;DHT22;4064;48.132;11.366;2023-05-10T09:45:34;15.80;99.90
8043;DHT22;4064;48.132;11.366;2023-05-10T09:48:01;16.00;99.90
8043;DHT22;4064;48.132;11.366;2023-05-10T09:50:28;16.10;99.90
8043;DHT22;4064;48.132;11.366;2023-05-10T09:53:01;16.10;99.90
8043;DHT22;4064;48.132;11.366;2023-05-10T09:55:44;16.10;99.90
8043;DHT22;4064;48.132;11.366;2023-05-10T09:58:12;16.40;99.90
8043;DHT22;4064;48.132;11.366;2023-05-10T10:00:42;16.80;99.90
8043;DHT22;4064;48.132;11.366;2023-05-10T10:03:16;17.10;99.90
8043;DHT22;4064;48.132;11.366;2023-05-10T10:05:43;17.30;99.90
8043;DHT22;4064;48.132;11.366;2023-05-10T10:08:11;17.30;99.90
8043;DHT22;4064;48.132;11.366;2023-05-10T10:10:38;17.30;99.90
8043;DHT22;4064;48.132;11.366;2023-05-10T10:13:09;17.80;99.90
8043;DHT22;4064;48.132;11.366;2023-05-10T10:15:36;18.50;99.90
8043;DHT22;4064;48.132;11.366;2023-05-10T10:18:02;18.70;99.90
8043;DHT22;4064;48.132;11.366;2023-05-10T10:20:29;18.70;99.90
8043;DHT22;4064;48.132;11.366;2023-05-10T10:22:55;18.60;99.90
8043;DHT22;4064;48.132;11.366;2023-05-10T10:25:21;18.30;99.90
8043;DHT22;4064;48.132;11.366;2023-05-10T10:35:32;17.00;99.90
8043;DHT22;4064;48.132;11.366;2023-05-10T10:37:58;16.70;99.90
8043;DHT22;4064;48.132;11.366;2023-05-10T10:40:29;16.60;99.90
8043;DHT22;4064;48.132;11.366;2023-05-10T10:43:20;16.50;99.90
8043;DHT22;4064;48.132;11.366;2023-05-10T10:46:10;16.60;99.90
8043;DHT22;4064;48.132;11.366;2023-05-10T10:48:34;16.60;99.90
8043;DHT22;4064;48.132;11.366;2023-05-10T10:51:01;16.50;99.90
8043;DHT22;4064;48.132;11.366;2023-05-10T10:53:27;16.60;99.90
8043;DHT22;4064;48.132;11.366;2023-05-10T10:56:14;16.60;99.90
8043;DHT22;4064;48.132;11.366;2023-05-10T10:58:42;16.50;99.90
8043;DHT22;4064;48.132;11.366;2023-05-10T11:01:16;16.40;99.90
8043;DHT22;4064;48.132;11.366;2023-05-10T11:04:18;16.30;99.90
8043;DHT22;4064;48.132;11.366;2023-05-10T11:06:45;16.20;99.90
8043;DHT22;4064;48.132;11.366;2023-05-10T11:09:12;16.20;99.90
8043;DHT22;4064;48.132;11.366;2023-05-10T11:11:54;16.20;99.90
8043;DHT22;4064;48.132;11.366;2023-05-10T11:14:24;16.10;99.90
8043;DHT22;4064;48.132;11.366;2023-05-10T11:16:51;15.80;99.90
8043;DHT22;4064;48.132;11.366;2023-05-10T11:19:18;15.60;99.90
8043;DHT22;4064;48.132;11.366;2023-05-10T11:22:32;15.30;99.90
8043;DHT22;4064;48.132;11.366;2023-05-10T11:24:33;15.00;99.90
8043;DHT22;4064;48.132;11.366;2023-05-10T11:27:01;14.80;99.90
8043;DHT22;4064;48.132;11.366;2023-05-10T11:29:27;14.70;99.90
8043;DHT22;4064;48.132;11.366;2023-05-10T11:31:57;14.50;99.90
8043;DHT22;4064;48.132;11.366;2023-05-10T11:34:26;14.20;99.90
8043;DHT22;4064;48.132;11.366;2023-05-10T11:36:54;14.00;99.90
8043;DHT22;4064;48.132;11.366;2023-05-10T11:39:20;13.90;99.90
8043;DHT22;4064;48.132;11.366;2023-05-10T11:41:50;13.70;99.90
8043;DHT22;4064;48.132;11.366;2023-05-10T11:44:16;13.50;99.90
8043;DHT22;4064;48.132;11.366;2023-05-10T11:46:41;13.40;99.90
8043;DHT22;4064;48.132;11.366;2023-05-10T11:49:07;13.40;99.90
8043;DHT22;4064;48.132;11.366;2023-05-10T11:51:37;13.30;99.90
8043;DHT22;4064;48.132;11.366;2023-05-10T11:54:10;13.30;99.90
8043;DHT22;4064;48.132;11.366;2023-05-10T11:56:37;13.20;99.90
8043;DHT22;4064;48.132;11.366;2023-05-10T11:59:03;13.20;99.90
8043;DHT22;4064;48.132;11.366;2023-05-10T12:01:30;13.10;99.90
8043;DHT22;4064;48.132;11.366;2023-05-10T12:03:58;13.10;99.90
8043;DHT22;4064;48.132;11.366;2023-05-10T12:06:30;13.10;99.90
8043;DHT22;4064;48.132;11.366;2023-05-10T12:08:57;13.10;99.90
8043;DHT22;4064;48.132;11.366;2023-05-10T12:11:28;13.10;99.90
8043;DHT22;4064;48.132;11.366;2023-05-10T12:13:55;12.90;99.90
8043;DHT22;4064;48.132;11.366;2023-05-10T12:16:25;12.90;99.90
8043;DHT22;4064;48.132;11.366;2023-05-10T12:18:57;12.80;99.90
8043;DHT22;4064;48.132;11.366;2023-05-10T12:21:24;12.70;99.90
8043;DHT22;4064;48.132;11.366;2023-05-10T12:23:52;12.70;99.90
8043;DHT22;4064;48.132;11.366;2023-05-10T12:26:18;12.80;99.90
8043;DHT22;4064;48.132;11.366;2023-05-10T12:28:46;12.70;99.90
8043;DHT22;4064;48.132;11.366;2023-05-10T12:31:12;12.70;99.90
8043;DHT22;4064;48.132;11.366;2023-05-10T12:33:40;12.70;99.90
8043;DHT22;4064;48.132;11.366;2023-05-10T12:36:12;12.70;99.90
8043;DHT22;4064;48.132;11.366;2023-05-10T12:38:41;12.50;99.90
8043;DHT22;4064;48.132;11.366;2023-05-10T12:41:27;12.50;99.90
8043;DHT22;4064;48.132;11.366;2023-05-10T12:43:53;12.40;99.90
8043;DHT22;4064;48.132;11.366;2023-05-10T12:46:19;12.30;99.90
8043;DHT22;4064;48.132;11.366;2023-05-10T12:48:45;12.30;99.90
8043;DHT22;4064;48.132;11.366;2023-05-10T12:51:11;12.30;99.90
8043;DHT22;4064;48.132;11.366;2023-05-10T12:53:39;12.20;99.90
8043;DHT22;4064;48.132;11.366;2023-05-10T12:56:05;12.30;99.90
8043;DHT22;4064;48.132;11.366;2023-05-10T12:58:31;12.30;99.90
8043;DHT22;4064;48.132;11.366;2023-05-10T13:01:01;12.30;99.90
8043;DHT22;4064;48.132;11.366;2023-05-10T13:03:26;12.30;99.90
8043;DHT22;4064;48.132;11.366;2023-05-10T13:05:52;12.30;99.90
8043;DHT22;4064;48.132;11.366;2023-05-10T13:08:18;12.40;99.90
8043;DHT22;4064;48.132;11.366;2023-05-10T13:10:44;12.40;99.90
8043;DHT22;4064;48.132;11.366;2023-05-10T13:13:09;12.40;99.90
8043;DHT22;4064;48.132;11.366;2023-05-10T13:15:36;12.40;99.90
8043;DHT22;4064;48.132;11.366;2023-05-10T13:18:01;12.30;99.90
8043;DHT22;4064;48.132;11.366;2023-05-10T13:20:27;12.30;99.90
8043;DHT22;4064;48.132;11.366;2023-05-10T13:22:53;12.30;99.90
8043;DHT22;4064;48.132;11.366;2023-05-10T13:25:19;12.30;99.90
8043;DHT22;4064;48.132;11.366;2023-05-10T13:27:45;12.30;99.90
8043;DHT22;4064;48.132;11.366;2023-05-10T13:30:11;12.30;99.90
8043;DHT22;4064;48.132;11.366;2023-05-10T13:32:38;12.30;99.90
8043;DHT22;4064;48.132;11.366;2023-05-10T13:35:05;12.20;99.90
8043;DHT22;4064;48.132;11.366;2023-05-10T13:37:31;12.10;99.90
8043;DHT22;4064;48.132;11.366;2023-05-10T13:40:01;12.10;99.90
8043;DHT22;4064;48.132;11.366;2023-05-10T13:42:26;12.10;99.90
8043;DHT22;4064;48.132;11.366;2023-05-10T13:44:53;12.10;99.90
8043;DHT22;4064;48.132;11.366;2023-05-10T13:47:19;12.10;99.90
8043;DHT22;4064;48.132;11.366;2023-05-10T13:49:47;12.10;99.90
8043;DHT22;4064;48.132;11.366;2023-05-10T13:52:13;12.00;99.90
8043;DHT22;4064;48.132;11.366;2023-05-10T13:54:39;11.90;99.90
8043;DHT22;4064;48.132;11.366;2023-05-10T13:57:05;11.90;99.90
8043;DHT22;4064;48.132;11.366;2023-05-10T13:59:32;11.90;99.90
8043;DHT22;4064;48.132;11.366;2023-05-10T14:01:59;11.80;99.90
8043;DHT22;4064;48.132;11.366;2023-05-10T14:04:26;11.90;99.90
8043;DHT22;4064;48.132;11.366;2023-05-10T14:06:52;11.80;99.90
8043;DHT22;4064;48.132;11.366;2023-05-10T14:09:19;11.80;99.90
8043;DHT22;4064;48.132;11.366;2023-05-10T14:11:46;11.80;99.90
8043;DHT22;4064;48.132;11.366;2023-05-10T14:14:12;11.70;99.90
8043;DHT22;4064;48.132;11.366;2023-05-10T14:16:42;11.70;99.90
8043;DHT22;4064;48.132;11.366;2023-05-10T14:19:09;11.70;99.90
8043;DHT22;4064;48.132;11.366;2023-05-10T14:21:35;11.60;99.90
8043;DHT22;4064;48.132;11.366;2023-05-10T14:24:01;11.60;99.90
8043;DHT22;4064;48.132;11.366;2023-05-10T14:26:26;11.60;99.90
8043;DHT22;4064;48.132;11.366;2023-05-10T14:28:53;11.70;99.90
8043;DHT22;4064;48.132;11.366;2023-05-10T14:31:19;11.70;99.90
8043;DHT22;4064;48.132;11.366;2023-05-10T14:33:49;11.70;99.90
8043;DHT22;4064;48.132;11.366;2023-05-10T14:36:15;11.70;99.90
8043;DHT22;4064;48.132;11.366;2023-05-10T14:38:41;11.80;99.90
8043;DHT22;4064;48.132;11.366;2023-05-10T14:41:07;11.70;99.90
8043;DHT22;4064;48.132;11.366;2023-05-10T14:43:33;11.80;99.90
8043;DHT22;4064;48.132;11.366;2023-05-10T14:45:59;11.70;99.90
8043;DHT22;4064;48.132;11.366;2023-05-10T14:48:25;11.70;99.90
8043;DHT22;4064;48.132;11.366;2023-05-10T14:50:51;11.80;99.90
8043;DHT22;4064;48.132;11.366;2023-05-10T14:53:18;11.70;99.90
8043;DHT22;4064;48.132;11.366;2023-05-10T14:55:44;11.70;99.90
8043;DHT22;4064;48.132;11.366;2023-05-10T14:58:09;11.60;99.90
8043;DHT22;4064;48.132;11.366;2023-05-10T15:00:35;11.70;99.90
8043;DHT22;4064;48.132;11.366;2023-05-10T15:03:01;11.70;99.90
8043;DHT22;4064;48.132;11.366;2023-05-10T15:05:28;11.70;99.90
8043;DHT22;4064;48.132;11.366;2023-05-10T15:07:53;11.60;99.90
8043;DHT22;4064;48.132;11.366;2023-05-10T15:10:19;11.60;99.90
8043;DHT22;4064;48.132;11.366;2023-05-10T15:12:45;11.60;99.90
8043;DHT22;4064;48.132;11.366;2023-05-10T15:15:11;11.60;99.90
8043;DHT22;4064;48.132;11.366;2023-05-10T15:17:37;11.50;99.90
8043;DHT22;4064;48.132;11.366;2023-05-10T15:20:03;11.50;99.90
8043;DHT22;4064;48.132;11.366;2023-05-10T15:22:30;11.50;99.90
8043;DHT22;4064;48.132;11.366;2023-05-10T15:24:58;11.40;99.90
8043;DHT22;4064;48.132;11.366;2023-05-10T15:27:25;11.40;99.90
8043;DHT22;4064;48.132;11.366;2023-05-10T15:29:51;11.30;99.90
8043;DHT22;4064;48.132;11.366;2023-05-10T15:32:17;11.30;99.90
8043;DHT22;4064;48.132;11.366;2023-05-10T15:34:43;11.40;99.90
8043;DHT22;4064;48.132;11.366;2023-05-10T15:37:09;11.40;99.90
8043;DHT22;4064;48.132;11.366;2023-05-10T15:39:35;11.40;99.90
8043;DHT22;4064;48.132;11.366;2023-05-10T15:42:01;11.30;99.90
8043;DHT22;4064;48.132;11.366;2023-05-10T15:44:27;11.30;99.90
8043;DHT22;4064;48.132;11.366;2023-05-10T15:46:52;11.40;99.90
8043;DHT22;4064;48.132;11.366;2023-05-10T15:49:18;11.30;99.90
8043;DHT22;4064;48.132;11.366;2023-05-10T15:51:44;11.30;99.90
8043;DHT22;4064;48.132;11.366;2023-05-10T15:54:09;11.30;99.90
8043;DHT22;4064;48.132;11.366;2023-05-10T15:56:36;11.30;99.90
8043;DHT22;4064;48.132;11.366;2023-05-10T15:59:02;11.30;99.90
8043;DHT22;4064;48.132;11.366;2023-05-10T16:01:28;11.40;99.90
8043;DHT22;4064;48.132;11.366;2023-05-10T16:03:55;11.40;99.90
8043;DHT22;4064;48.132;11.366;2023-05-10T16:06:21;11.40;99.90
8043;DHT22;4064;48.132;11.366;2023-05-10T16:08:47;11.40;99.90